createdAt,value
2018-12-23T00:02:29.033Z,9.37
2018-12-23T00:04:57.904Z,9.41
2018-12-23T00:07:26.843Z,9.42
2018-12-23T00:09:55.785Z,9.43
2018-12-23T00:12:25.056Z,9.42
2018-12-23T00:14:53.816Z,9.43
2018-12-23T00:17:22.704Z,9.42
2018-12-23T00:19:51.581Z,9.44
2018-12-23T00:22:20.400Z,9.42
2018-12-23T00:24:49.258Z,9.40
2018-12-23T00:27:18.150Z,9.44
2018-12-23T00:29:47.000Z,9.45
2018-12-23T00:32:15.827Z,9.45
2018-12-23T00:34:44.690Z,9.44
2018-12-23T00:37:13.509Z,9.44
2018-12-23T00:39:42.330Z,9.45
2018-12-23T00:42:12.200Z,9.43
2018-12-23T00:44:42.063Z,9.42
2018-12-23T00:47:10.857Z,9.43
2018-12-23T00:49:39.701Z,9.43
2018-12-23T00:52:08.613Z,9.41
2018-12-23T00:54:37.437Z,9.43
2018-12-23T00:57:06.253Z,9.43
2018-12-23T00:59:35.213Z,9.42
2018-12-23T01:02:04.119Z,9.42
2018-12-23T01:04:33.017Z,9.40
2018-12-23T01:07:01.821Z,9.38
2018-12-23T01:09:30.737Z,9.40
2018-12-23T01:11:59.548Z,9.41
2018-12-23T01:14:28.361Z,9.41
2018-12-23T01:16:57.182Z,9.40
2018-12-23T01:19:26.025Z,9.42
2018-12-23T01:21:54.844Z,9.41
2018-12-23T01:24:23.665Z,9.41
2018-12-23T01:26:52.536Z,9.41
2018-12-23T01:29:21.410Z,9.41
2018-12-23T01:31:50.238Z,9.39
2018-12-23T01:34:19.142Z,9.37
2018-12-23T01:36:47.955Z,9.36
2018-12-23T01:39:16.816Z,9.36
2018-12-23T01:41:45.664Z,9.35
2018-12-23T01:44:14.477Z,9.33
2018-12-23T01:46:43.397Z,9.32
2018-12-23T01:49:12.798Z,9.32
2018-12-23T01:51:41.601Z,9.30
2018-12-23T01:54:10.522Z,9.28
2018-12-23T01:56:39.337Z,9.28
2018-12-23T01:59:08.201Z,9.29
2018-12-23T02:01:37.085Z,9.29
2018-12-23T02:04:06.074Z,9.28
2018-12-23T02:06:34.964Z,9.28
2018-12-23T02:09:05.242Z,9.29
2018-12-23T02:11:34.413Z,9.30
2018-12-23T02:14:03.287Z,9.30
2018-12-23T02:16:32.172Z,9.29
2018-12-23T02:19:01.049Z,9.29
2018-12-23T02:21:29.950Z,9.29
2018-12-23T02:23:58.855Z,9.27
2018-12-23T02:26:27.833Z,9.28
2018-12-23T02:28:57.345Z,9.28
2018-12-23T02:31:26.176Z,9.28
2018-12-23T02:33:55.121Z,9.27
2018-12-23T02:36:30.573Z,9.24
2018-12-23T02:38:59.451Z,9.26
2018-12-23T02:41:31.911Z,9.25
2018-12-23T02:43:59.102Z,9.25
2018-12-23T02:46:27.966Z,9.25
2018-12-23T02:48:56.851Z,9.25
2018-12-23T02:51:25.733Z,9.26
2018-12-23T02:53:54.634Z,9.26
2018-12-23T02:56:23.557Z,9.26
2018-12-23T02:58:52.404Z,9.28
2018-12-23T03:01:21.270Z,9.29
2018-12-23T03:03:51.230Z,9.29
2018-12-23T03:06:20.118Z,9.29
2018-12-23T03:08:49.008Z,9.28
2018-12-23T03:11:17.875Z,9.30
2018-12-23T03:13:46.695Z,9.30
2018-12-23T03:16:15.869Z,9.29
2018-12-23T03:18:44.780Z,9.29
2018-12-23T03:21:13.653Z,9.29
2018-12-23T03:23:42.549Z,9.29
2018-12-23T03:26:11.624Z,9.31
2018-12-23T03:28:40.534Z,9.33
2018-12-23T03:31:09.427Z,9.35
2018-12-23T03:33:38.327Z,9.35
2018-12-23T03:36:15.001Z,9.35
2018-12-23T03:38:38.836Z,9.36
2018-12-23T03:41:07.861Z,9.34
2018-12-23T03:43:36.731Z,9.35
2018-12-23T03:46:05.679Z,9.35
2018-12-23T03:48:34.525Z,9.36
2018-12-23T03:51:04.026Z,9.36
2018-12-23T03:53:33.733Z,9.36
2018-12-23T03:56:02.561Z,9.35
2018-12-23T03:58:31.369Z,9.32
2018-12-23T04:01:00.244Z,9.31
2018-12-23T04:03:29.072Z,9.30
2018-12-23T04:05:57.957Z,9.33
2018-12-23T04:08:26.798Z,9.32
2018-12-23T04:10:55.692Z,9.34
2018-12-23T04:13:24.672Z,9.35
2018-12-23T04:15:53.477Z,9.36
2018-12-23T04:18:22.388Z,9.37
2018-12-23T04:20:51.213Z,9.37
2018-12-23T04:23:20.423Z,9.37
2018-12-23T04:25:49.308Z,9.36
2018-12-23T04:28:18.629Z,9.36
2018-12-23T04:30:48.093Z,9.36
2018-12-23T04:33:16.997Z,9.37
2018-12-23T04:35:45.902Z,9.37
2018-12-23T04:38:14.783Z,9.40
2018-12-23T04:40:43.782Z,9.41
2018-12-23T04:43:12.640Z,9.40
2018-12-23T04:45:41.481Z,9.42
2018-12-23T04:48:10.374Z,9.41
2018-12-23T04:50:39.277Z,9.40
2018-12-23T04:53:08.094Z,9.41
2018-12-23T04:55:37.016Z,9.41
2018-12-23T04:58:05.907Z,9.44
2018-12-23T05:00:34.797Z,9.44
2018-12-23T05:03:03.732Z,9.41
2018-12-23T05:05:32.586Z,9.44
2018-12-23T05:08:01.502Z,9.43
2018-12-23T05:10:30.379Z,9.43
2018-12-23T05:12:59.318Z,9.45
2018-12-23T05:15:28.152Z,9.46
2018-12-23T05:17:57.069Z,9.46
2018-12-23T05:20:26.871Z,9.47
2018-12-23T05:22:55.739Z,9.49
2018-12-23T05:25:25.541Z,9.50
2018-12-23T05:27:54.436Z,9.49
2018-12-23T05:30:23.316Z,9.53
2018-12-23T05:32:52.197Z,9.54
2018-12-23T05:35:21.273Z,9.56
2018-12-23T05:37:50.184Z,9.57
2018-12-23T05:40:18.975Z,9.58
2018-12-23T05:42:47.805Z,9.59
2018-12-23T05:45:16.612Z,9.60
2018-12-23T05:47:45.440Z,9.61
2018-12-23T05:50:14.249Z,9.62
2018-12-23T05:52:43.058Z,9.63
2018-12-23T05:55:11.917Z,9.64
2018-12-23T05:57:40.748Z,9.64
2018-12-23T06:00:09.596Z,9.66
2018-12-23T06:02:38.457Z,9.67
2018-12-23T06:05:07.404Z,9.67
2018-12-23T06:07:36.201Z,9.69
2018-12-23T06:10:05.229Z,9.69
2018-12-23T06:12:34.049Z,9.69
2018-12-23T06:15:02.982Z,9.71
2018-12-23T06:17:31.785Z,9.73
2018-12-23T06:20:00.623Z,9.73
2018-12-23T06:22:29.601Z,9.70
2018-12-23T06:24:58.728Z,9.70
2018-12-23T06:27:27.716Z,9.70
2018-12-23T06:29:56.515Z,9.70
2018-12-23T06:32:25.324Z,9.69
2018-12-23T06:34:54.165Z,9.70
2018-12-23T06:37:23.137Z,9.71
2018-12-23T06:39:52.506Z,9.72
2018-12-23T06:42:21.319Z,9.73
2018-12-23T06:44:50.284Z,9.73
2018-12-23T06:47:19.101Z,9.75
2018-12-23T06:49:47.953Z,9.76
2018-12-23T06:52:16.888Z,9.76
2018-12-23T06:54:45.756Z,9.78
2018-12-23T06:57:14.596Z,9.79
2018-12-23T06:59:43.454Z,9.79
2018-12-23T07:02:12.269Z,9.80
2018-12-23T07:04:41.094Z,9.81
2018-12-23T07:07:18.450Z,9.81
2018-12-23T07:09:40.790Z,9.83
2018-12-23T07:12:09.593Z,9.85
2018-12-23T07:14:38.557Z,9.86
2018-12-23T07:17:07.388Z,9.87
2018-12-23T07:19:37.876Z,9.86
2018-12-23T07:22:07.934Z,9.87
2018-12-23T07:24:36.753Z,9.90
2018-12-23T07:27:05.641Z,9.88
2018-12-23T07:29:34.633Z,9.90
2018-12-23T07:32:03.515Z,9.90
2018-12-23T07:34:32.506Z,9.93
2018-12-23T07:37:01.325Z,9.94
2018-12-23T07:39:30.303Z,9.95
2018-12-23T07:41:59.126Z,9.96
2018-12-23T07:44:28.016Z,9.97
2018-12-23T07:46:56.919Z,9.97
2018-12-23T07:49:25.790Z,9.98
2018-12-23T07:51:54.633Z,9.98
2018-12-23T07:54:23.460Z,9.98
2018-12-23T07:56:52.385Z,9.97
2018-12-23T07:59:21.229Z,9.97
2018-12-23T08:01:50.149Z,9.99
2018-12-23T08:04:19.015Z,9.99
2018-12-23T08:06:47.885Z,9.99
2018-12-23T08:09:17.037Z,9.99
2018-12-23T08:11:45.881Z,10.01
2018-12-23T08:14:14.700Z,10.02
2018-12-23T08:16:43.545Z,10.03
2018-12-23T08:19:12.400Z,10.05
2018-12-23T08:21:41.336Z,10.05
2018-12-23T08:24:10.521Z,10.07
2018-12-23T08:26:39.328Z,10.08
2018-12-23T08:29:08.206Z,10.10
2018-12-23T08:31:37.288Z,10.09
2018-12-23T08:34:06.112Z,10.10
2018-12-23T08:36:34.949Z,10.11
2018-12-23T08:39:05.014Z,10.13
2018-12-23T08:41:33.965Z,10.12
2018-12-23T08:44:02.912Z,10.12
2018-12-23T08:46:38.926Z,10.13
2018-12-23T08:49:02.540Z,10.13
2018-12-23T08:51:31.415Z,10.14
2018-12-23T08:54:00.232Z,10.15
2018-12-23T08:56:29.046Z,10.18
2018-12-23T08:58:57.880Z,10.18
2018-12-23T09:01:26.723Z,10.19
2018-12-23T09:03:55.648Z,10.17
2018-12-23T09:06:24.477Z,10.18
2018-12-23T09:08:53.366Z,10.19
2018-12-23T09:11:22.157Z,10.20
2018-12-23T09:13:51.141Z,10.23
2018-12-23T09:16:20.120Z,10.23
2018-12-23T09:18:49.070Z,10.23
2018-12-23T09:21:18.292Z,10.23
2018-12-23T09:23:48.548Z,10.26
2018-12-23T09:26:17.308Z,10.25
2018-12-23T09:28:47.756Z,10.27
2018-12-23T09:31:16.569Z,10.29
2018-12-23T09:33:45.400Z,10.32
2018-12-23T09:36:14.212Z,10.33
2018-12-23T09:38:43.061Z,10.36
2018-12-23T09:41:11.897Z,10.38
2018-12-23T09:43:40.809Z,10.42
2018-12-23T09:46:09.665Z,10.44
2018-12-23T09:48:38.592Z,10.45
2018-12-23T09:51:07.461Z,10.45
2018-12-23T09:53:36.347Z,10.48
2018-12-23T09:56:05.243Z,10.47
2018-12-23T09:58:34.118Z,10.50
2018-12-23T10:01:03.024Z,10.52
2018-12-23T10:03:31.899Z,10.52
2018-12-23T10:06:00.813Z,10.53
2018-12-23T10:08:29.689Z,10.53
2018-12-23T10:10:58.530Z,10.54
2018-12-23T10:13:27.342Z,10.53
2018-12-23T10:15:56.204Z,10.52
2018-12-23T10:18:25.039Z,10.54
2018-12-23T10:20:53.932Z,10.54
2018-12-23T10:23:22.834Z,10.55
2018-12-23T10:25:51.863Z,10.54
2018-12-23T10:28:20.824Z,10.54
2018-12-23T10:30:49.753Z,10.54
2018-12-23T10:33:18.586Z,10.54
2018-12-23T10:35:47.525Z,10.54
2018-12-23T10:38:18.507Z,10.54
2018-12-23T10:40:48.244Z,10.55
2018-12-23T10:43:17.144Z,10.55
2018-12-23T10:45:46.064Z,10.55
2018-12-23T10:48:14.992Z,10.58
2018-12-23T10:50:43.964Z,10.57
2018-12-23T10:53:12.908Z,10.57
2018-12-23T10:55:41.772Z,10.57
2018-12-23T10:58:10.605Z,10.56
2018-12-23T11:00:40.489Z,10.56
2018-12-23T11:03:09.389Z,10.55
2018-12-23T11:05:38.981Z,10.55
2018-12-23T11:08:07.865Z,10.54
2018-12-23T11:10:36.730Z,10.56
2018-12-23T11:13:05.596Z,10.55
2018-12-23T11:15:34.457Z,10.55
2018-12-23T11:18:03.469Z,10.54
2018-12-23T11:20:32.289Z,10.51
2018-12-23T11:23:01.104Z,10.50
2018-12-23T11:25:29.922Z,10.47
2018-12-23T11:27:58.733Z,10.45
2018-12-23T11:30:27.555Z,10.45
2018-12-23T11:32:56.384Z,10.43
2018-12-23T11:35:25.217Z,10.42
2018-12-23T11:37:54.056Z,10.42
2018-12-23T11:40:22.964Z,10.40
2018-12-23T11:42:51.890Z,10.40
2018-12-23T11:45:20.704Z,10.39
2018-12-23T11:47:49.528Z,10.38
2018-12-23T11:50:18.464Z,10.40
2018-12-23T11:52:47.388Z,10.41
2018-12-23T11:55:16.278Z,10.42
2018-12-23T11:57:45.233Z,10.42
2018-12-23T12:00:14.101Z,10.43
2018-12-23T12:02:49.781Z,10.44
2018-12-23T12:05:18.618Z,10.44
2018-12-23T12:07:47.421Z,10.45
2018-12-23T12:10:16.327Z,10.45
2018-12-23T12:12:45.204Z,10.45
2018-12-23T12:15:14.029Z,10.44
2018-12-23T12:17:45.952Z,10.45
2018-12-23T12:20:14.828Z,10.45
2018-12-23T12:22:43.776Z,10.44
2018-12-23T12:25:12.757Z,10.42
2018-12-23T12:27:41.588Z,10.41
2018-12-23T12:30:10.528Z,10.40
2018-12-23T12:32:39.377Z,10.41
2018-12-23T12:35:08.268Z,10.42
2018-12-23T12:37:37.097Z,10.40
2018-12-23T12:40:06.669Z,10.36
2018-12-23T12:42:37.048Z,10.34
2018-12-23T12:45:06.271Z,10.32
2018-12-23T12:47:35.204Z,10.31
2018-12-23T12:50:04.338Z,10.30
2018-12-23T12:52:33.180Z,10.29
2018-12-23T12:55:02.010Z,10.28
2018-12-23T12:57:30.887Z,10.29
2018-12-23T12:59:59.717Z,10.30
2018-12-23T13:02:28.648Z,10.28
2018-12-23T13:04:57.492Z,10.27
2018-12-23T13:07:26.486Z,10.27
2018-12-23T13:09:55.394Z,10.28
2018-12-23T13:12:24.384Z,10.28
2018-12-23T13:14:53.331Z,10.28
2018-12-23T13:17:22.153Z,10.28
2018-12-23T13:19:51.048Z,10.29
2018-12-23T13:22:19.887Z,10.29
2018-12-23T13:24:48.828Z,10.29
2018-12-23T13:27:17.700Z,10.29
2018-12-23T13:29:46.604Z,10.29
2018-12-23T13:32:15.514Z,10.29
2018-12-23T13:34:44.356Z,10.28
2018-12-23T13:37:13.269Z,10.28
2018-12-23T13:39:42.369Z,10.28
2018-12-23T13:42:23.504Z,10.27
2018-12-23T13:45:01.677Z,10.27
2018-12-23T13:47:49.405Z,10.25
2018-12-23T13:50:34.221Z,10.25
2018-12-23T13:54:16.581Z,10.24
2018-12-23T13:57:02.152Z,10.23
2018-12-23T13:59:42.782Z,10.23
2018-12-23T14:02:23.300Z,10.25
2018-12-23T14:05:04.152Z,10.25
2018-12-23T14:08:01.440Z,10.26
2018-12-23T14:10:47.493Z,10.27
2018-12-23T14:13:16.374Z,10.29
2018-12-23T14:15:45.311Z,10.29
2018-12-23T14:18:14.231Z,10.30
2018-12-23T14:20:43.226Z,10.31
2018-12-23T14:23:12.154Z,10.30
2018-12-23T14:25:42.369Z,10.31
2018-12-23T14:28:11.462Z,10.28
2018-12-23T14:30:40.419Z,10.29
2018-12-23T14:33:09.497Z,10.28
2018-12-23T14:35:38.951Z,10.26
2018-12-23T14:38:08.312Z,10.26
2018-12-23T14:40:37.244Z,10.27
2018-12-23T14:43:06.080Z,10.25
2018-12-23T14:45:34.976Z,10.26
2018-12-23T14:48:04.836Z,10.23
2018-12-23T14:50:33.735Z,10.21
2018-12-23T14:53:03.818Z,10.22
2018-12-23T14:55:32.812Z,10.21
2018-12-23T14:58:01.756Z,10.21
2018-12-23T15:00:30.714Z,10.20
2018-12-23T15:02:59.697Z,10.21
2018-12-23T15:05:28.512Z,10.20
2018-12-23T15:07:57.508Z,10.17
2018-12-23T15:10:26.380Z,10.18
2018-12-23T15:12:55.377Z,10.19
2018-12-23T15:15:24.251Z,10.17
2018-12-23T15:17:53.162Z,10.17
2018-12-23T15:20:22.573Z,10.16
2018-12-23T15:22:51.468Z,10.14
2018-12-23T15:25:20.366Z,10.12
2018-12-23T15:27:49.244Z,10.11
2018-12-23T15:30:18.120Z,10.10
2018-12-23T15:32:47.092Z,10.08
2018-12-23T15:35:16.103Z,10.09
2018-12-23T15:37:44.996Z,10.09
2018-12-23T15:40:14.008Z,10.09
2018-12-23T15:42:42.976Z,10.10
2018-12-23T15:45:11.888Z,10.08
2018-12-23T15:47:40.763Z,10.09
2018-12-23T15:50:09.660Z,10.10
2018-12-23T15:52:38.541Z,10.10
2018-12-23T15:55:07.437Z,10.10
2018-12-23T15:57:36.440Z,10.10
2018-12-23T16:00:05.953Z,10.10
2018-12-23T16:02:34.812Z,10.11
2018-12-23T16:05:03.786Z,10.11
2018-12-23T16:07:32.605Z,10.11
2018-12-23T16:10:01.625Z,10.10
2018-12-23T16:12:32.086Z,10.10
2018-12-23T16:15:00.989Z,10.10
2018-12-23T16:17:29.901Z,10.10
2018-12-23T16:19:58.782Z,10.10
2018-12-23T16:22:27.666Z,10.09
2018-12-23T16:24:56.626Z,10.07
2018-12-23T16:27:25.450Z,10.07
2018-12-23T16:29:54.293Z,10.06
2018-12-23T16:32:23.140Z,10.08
2018-12-23T16:34:51.993Z,10.07
2018-12-23T16:37:20.853Z,10.06
2018-12-23T16:39:49.725Z,10.06
2018-12-23T16:42:18.527Z,10.06
2018-12-23T16:44:47.373Z,10.07
2018-12-23T16:47:16.236Z,10.05
2018-12-23T16:49:45.297Z,10.06
2018-12-23T16:52:14.201Z,10.06
2018-12-23T16:54:43.086Z,10.07
2018-12-23T16:57:11.934Z,10.06
2018-12-23T16:59:40.900Z,10.04
2018-12-23T17:02:09.765Z,10.05
2018-12-23T17:04:38.776Z,10.03
2018-12-23T17:07:07.653Z,10.05
2018-12-23T17:09:36.520Z,10.04
2018-12-23T17:12:05.383Z,10.02
2018-12-23T17:14:34.292Z,10.01
2018-12-23T17:17:03.273Z,10.02
2018-12-23T17:19:32.180Z,10.02
2018-12-23T17:22:01.021Z,10.01
2018-12-23T17:24:30.922Z,10.00
2018-12-23T17:26:59.832Z,10.02
2018-12-23T17:29:28.683Z,10.02
2018-12-23T17:31:57.549Z,10.02
2018-12-23T17:34:26.472Z,10.02
2018-12-23T17:36:55.343Z,10.02
2018-12-23T17:39:24.256Z,10.01
2018-12-23T17:41:53.127Z,10.01
2018-12-23T17:44:21.957Z,10.01
2018-12-23T17:46:53.023Z,9.98
2018-12-23T17:49:21.792Z,9.96
2018-12-23T17:51:50.812Z,9.97
2018-12-23T17:54:19.726Z,9.96
2018-12-23T17:56:48.645Z,9.97
2018-12-23T17:59:17.472Z,9.97
2018-12-23T18:01:46.799Z,9.99
2018-12-23T18:04:15.648Z,9.98
2018-12-23T18:06:44.583Z,10.00
2018-12-23T18:09:13.418Z,10.01
2018-12-23T18:11:42.490Z,10.03
2018-12-23T18:14:12.478Z,10.03
2018-12-23T18:16:41.909Z,10.05
2018-12-23T18:19:11.057Z,10.06
2018-12-23T18:21:39.999Z,10.06
2018-12-23T18:24:08.988Z,10.08
2018-12-23T18:26:45.084Z,10.10
2018-12-23T18:29:09.777Z,10.11
2018-12-23T18:31:38.745Z,10.11
2018-12-23T18:34:07.888Z,10.12
2018-12-23T18:36:36.784Z,10.12
2018-12-23T18:39:07.339Z,10.13
2018-12-23T18:41:36.360Z,10.13
2018-12-23T18:44:05.208Z,10.13
2018-12-23T18:46:35.279Z,10.13
2018-12-23T18:49:05.024Z,10.12
2018-12-23T18:51:34.016Z,10.11
2018-12-23T18:54:03.021Z,10.11
2018-12-23T18:56:39.664Z,10.10
2018-12-23T18:59:08.735Z,10.11
2018-12-23T19:01:39.998Z,10.11
2018-12-23T19:04:09.141Z,10.10
2018-12-23T19:06:38.188Z,10.10
2018-12-23T19:09:15.353Z,10.09
2018-12-23T19:14:56.334Z,10.09
2018-12-23T19:19:46.231Z,10.08
2018-12-23T19:22:34.303Z,10.08
2018-12-23T19:25:18.423Z,10.09
2018-12-23T19:28:07.823Z,10.10
2018-12-23T19:33:00.185Z,10.10
2018-12-23T19:35:41.136Z,10.09
2018-12-23T19:38:26.190Z,10.11
2018-12-23T19:41:24.392Z,10.11
2018-12-23T19:44:05.393Z,10.12
2018-12-23T19:47:17.493Z,10.13
2018-12-23T19:50:02.461Z,10.14
2018-12-23T19:54:54.132Z,10.16
2018-12-23T19:57:31.113Z,10.20
2018-12-23T20:00:12.840Z,10.25
2018-12-23T20:03:27.404Z,10.28
2018-12-23T20:06:16.119Z,10.31
2018-12-23T20:11:00.852Z,10.34
2018-12-23T20:13:39.453Z,10.37
2018-12-23T20:16:23.189Z,10.40
2018-12-23T20:19:33.206Z,10.42
2018-12-23T20:24:33.217Z,10.45
2018-12-23T20:27:15.781Z,10.46
2018-12-23T20:29:57.405Z,10.47
2018-12-23T20:32:40.101Z,10.51
2018-12-23T20:35:29.285Z,10.53
2018-12-23T20:38:14.412Z,10.53
2018-12-23T20:43:03.277Z,10.53
2018-12-23T20:45:46.942Z,10.49
2018-12-23T20:48:37.595Z,10.48
2018-12-23T20:51:27.594Z,10.48
2018-12-23T20:54:04.804Z,10.44
2018-12-23T20:56:54.739Z,10.40
2018-12-23T20:59:50.705Z,10.35
2018-12-23T21:04:54.444Z,10.33
2018-12-23T21:09:41.035Z,10.23
2018-12-23T21:13:26.112Z,10.25
2018-12-23T21:16:09.744Z,10.28
2018-12-23T21:19:03.857Z,10.31
2018-12-23T21:21:49.857Z,10.37
2018-12-23T21:24:28.845Z,10.41
2018-12-23T21:27:09.220Z,10.45
2018-12-23T21:29:49.008Z,10.50
2018-12-23T21:32:30.140Z,10.55
2018-12-23T21:35:14.617Z,10.61
2018-12-23T21:37:53.376Z,10.63
2018-12-23T21:42:38.923Z,10.65
2018-12-23T21:47:40.482Z,10.72
2018-12-23T21:52:23.010Z,10.80
2018-12-23T21:55:29.093Z,10.78
2018-12-23T21:58:16.657Z,10.75
2018-12-23T22:02:02.276Z,10.71
2018-12-23T22:05:02.286Z,10.70
2018-12-23T22:07:47.268Z,10.70
2018-12-23T22:10:25.323Z,10.68
2018-12-23T22:13:30.909Z,10.63
2018-12-23T22:15:59.770Z,10.55
2018-12-23T22:18:29.373Z,10.51
2018-12-23T22:20:58.257Z,10.47
2018-12-23T22:23:28.269Z,10.48
2018-12-23T22:25:58.899Z,10.49
2018-12-23T22:28:28.737Z,10.53
2018-12-23T22:30:57.728Z,10.50
2018-12-23T22:33:26.553Z,10.50
2018-12-23T22:35:55.353Z,10.50
2018-12-23T22:38:24.245Z,10.49
2018-12-23T22:40:59.125Z,10.45
2018-12-23T22:43:27.964Z,10.42
2018-12-23T22:45:56.856Z,10.35
2018-12-23T22:48:26.745Z,10.29
2018-12-23T22:50:55.633Z,10.23
2018-12-23T22:53:24.565Z,10.18
2018-12-23T22:55:53.397Z,10.18
2018-12-23T22:58:22.233Z,10.06
2018-12-23T23:00:51.254Z,9.90
2018-12-23T23:03:20.379Z,9.79
2018-12-23T23:05:49.193Z,9.76
2018-12-23T23:08:17.992Z,9.82
2018-12-23T23:10:46.792Z,9.81
2018-12-23T23:13:18.779Z,9.79
2018-12-23T23:15:46.549Z,9.70
2018-12-23T23:18:15.404Z,9.55
2018-12-23T23:20:44.269Z,9.41
2018-12-23T23:23:13.108Z,9.33
2018-12-23T23:25:42.025Z,9.25
2018-12-23T23:28:10.900Z,9.18
2018-12-23T23:30:39.747Z,9.13
2018-12-23T23:33:08.721Z,9.05
2018-12-23T23:35:37.576Z,9.00
2018-12-23T23:38:06.448Z,8.96
2018-12-23T23:40:35.289Z,8.95
2018-12-23T23:43:04.112Z,8.91
2018-12-23T23:45:33.085Z,8.88
2018-12-23T23:48:01.909Z,8.90
2018-12-23T23:50:30.878Z,8.90
2018-12-23T23:53:41.368Z,8.94
2018-12-23T23:56:11.518Z,8.83
2018-12-23T23:58:41.356Z,8.81
